createdAt,value
2022-11-26T19:59:53.449Z,0.53
2022-11-26T20:00:59.103Z,0.53
2022-11-26T20:02:03.120Z,0.68
2022-11-26T20:03:07.118Z,0.73
2022-11-26T20:04:14.144Z,0.73
2022-11-26T20:05:19.699Z,0.75
2022-11-26T20:06:25.952Z,0.76
2022-11-26T20:07:29.924Z,0.79
2022-11-26T20:08:36.096Z,0.81
2022-11-26T20:09:40.446Z,0.85
2022-11-26T20:10:49.720Z,0.85
2022-11-26T20:11:50.836Z,0.88
2022-11-26T20:12:54.784Z,0.86
2022-11-26T20:13:58.957Z,0.90
2022-11-26T20:15:03.079Z,0.92
2022-11-26T20:16:10.728Z,0.90
2022-11-26T20:17:14.940Z,0.90
2022-11-26T20:18:20.529Z,0.90
2022-11-26T20:19:24.585Z,0.88
2022-11-26T20:20:29.079Z,0.91
2022-11-26T20:21:34.369Z,0.91
2022-11-26T20:22:41.213Z,0.91
2022-11-26T20:23:48.017Z,0.95
2022-11-26T20:24:51.954Z,0.95
2022-11-26T20:25:56.025Z,0.94
2022-11-26T20:27:00.025Z,0.94
2022-11-26T20:28:05.016Z,0.94
2022-11-26T20:29:11.521Z,0.95
2022-11-26T20:30:15.482Z,0.95
2022-11-26T20:31:23.614Z,0.95
2022-11-26T20:32:26.167Z,0.91
2022-11-26T20:33:30.136Z,0.92
2022-11-26T20:34:34.136Z,0.92
2022-11-26T20:35:42.080Z,0.93
2022-11-26T20:36:46.197Z,0.92
2022-11-26T20:37:50.177Z,0.95
2022-11-26T20:39:00.331Z,0.93
2022-11-26T20:40:04.631Z,0.94
2022-11-26T20:41:14.496Z,0.93
2022-11-26T20:42:18.445Z,0.97
2022-11-26T20:43:25.506Z,0.95
2022-11-26T20:44:36.907Z,0.97
2022-11-26T20:45:41.091Z,0.96
2022-11-26T20:46:45.105Z,0.96
2022-11-26T20:47:49.641Z,0.93
2022-11-26T20:48:53.704Z,0.93
2022-11-26T20:49:58.892Z,0.95
2022-11-26T20:51:04.697Z,0.95
2022-11-26T20:52:10.259Z,0.96
2022-11-26T20:53:14.205Z,0.97
2022-11-26T20:54:18.278Z,0.96
2022-11-26T20:55:22.360Z,0.96
2022-11-26T20:56:26.882Z,0.96
2022-11-26T20:57:36.843Z,0.95
2022-11-26T20:58:41.629Z,0.95
2022-11-26T20:59:46.061Z,0.96
2022-11-26T21:00:50.073Z,0.98
2022-11-26T21:01:54.276Z,0.97
2022-11-26T21:03:05.670Z,0.99
2022-11-26T21:04:09.600Z,0.99
2022-11-26T21:05:18.036Z,1.00
2022-11-26T21:06:29.303Z,0.98
2022-11-26T21:07:31.692Z,0.98
2022-11-26T21:08:35.650Z,0.96
2022-11-26T21:09:41.235Z,0.97
2022-11-26T21:10:45.801Z,0.96
2022-11-26T21:11:49.747Z,0.94
2022-11-26T21:12:55.320Z,0.98
2022-11-26T21:14:00.194Z,0.99
2022-11-26T21:15:08.063Z,0.99
2022-11-26T21:16:21.445Z,1.00
2022-11-26T21:17:29.716Z,0.99
2022-11-26T21:18:37.162Z,0.98
2022-11-26T21:19:41.256Z,0.97
2022-11-26T21:20:50.997Z,1.00
2022-11-26T21:21:56.482Z,1.00
2022-11-26T21:23:00.406Z,1.00
2022-11-26T21:24:04.493Z,0.99
2022-11-26T21:26:44.209Z,0.99
2022-11-26T21:27:55.672Z,0.99
2022-11-26T21:29:01.603Z,1.00
2022-11-26T21:30:07.339Z,1.00
2022-11-26T21:32:27.658Z,1.00
2022-11-26T21:34:58.820Z,1.13
2022-11-26T21:36:22.583Z,0.99
2022-11-26T21:37:28.373Z,1.01
2022-11-26T21:38:32.294Z,1.00
2022-11-26T21:39:37.984Z,1.00
2022-11-26T21:40:42.236Z,1.00
2022-11-26T21:41:46.161Z,0.98
2022-11-26T21:42:50.254Z,1.00
2022-11-26T21:43:55.955Z,1.01
2022-11-26T21:44:59.889Z,1.01
2022-11-26T21:46:09.700Z,1.01
2022-11-26T21:47:16.773Z,0.99
2022-11-26T21:48:22.370Z,1.01
2022-11-26T21:49:27.949Z,1.00
2022-11-26T21:50:32.089Z,1.00
2022-11-26T21:51:40.713Z,1.00
2022-11-26T21:52:45.020Z,1.00
2022-11-26T21:53:50.636Z,1.03
2022-11-26T21:55:03.611Z,1.04
2022-11-26T21:56:16.552Z,1.04
2022-11-26T21:57:20.420Z,1.05
2022-11-26T21:58:26.476Z,1.05
2022-11-26T21:59:32.940Z,1.05
2022-11-26T22:00:37.695Z,1.03
2022-11-26T22:01:41.833Z,1.06
2022-11-26T22:02:45.977Z,1.06
2022-11-26T22:03:52.804Z,1.03
2022-11-26T22:04:56.942Z,1.03
2022-11-26T22:06:02.669Z,1.03
2022-11-26T22:07:08.101Z,1.04
2022-11-26T22:08:16.492Z,1.04
2022-11-26T22:09:20.397Z,1.04
2022-11-26T22:10:24.505Z,1.04
2022-11-26T22:11:31.402Z,1.03
2022-11-26T22:12:46.300Z,1.01
2022-11-26T22:13:48.707Z,1.00
2022-11-26T22:14:52.732Z,1.01
2022-11-26T22:15:59.820Z,0.98
2022-11-26T22:17:04.432Z,0.98
2022-11-26T22:18:12.728Z,0.97
2022-11-26T22:19:20.040Z,0.97
2022-11-26T22:20:24.062Z,0.98
2022-11-26T22:21:32.137Z,0.96
2022-11-26T22:22:38.834Z,0.95
2022-11-26T22:23:42.877Z,0.95
2022-11-26T22:24:48.551Z,0.95
2022-11-26T22:25:52.609Z,0.95
2022-11-26T22:26:59.687Z,0.95
2022-11-26T22:28:03.732Z,0.93
2022-11-26T22:29:07.867Z,0.91
2022-11-26T22:30:12.302Z,0.91
2022-11-26T22:31:19.232Z,0.95
2022-11-26T22:32:23.130Z,0.91
2022-11-26T22:33:27.076Z,0.74
2022-11-26T22:34:33.968Z,0.93
2022-11-26T22:35:40.296Z,0.93
2022-11-26T22:36:47.497Z,0.94
2022-11-26T22:37:51.590Z,0.93
2022-11-26T22:39:02.071Z,0.93
2022-11-26T22:40:03.437Z,0.95
2022-11-26T22:41:12.130Z,0.95
2022-11-26T22:42:17.650Z,0.91
2022-11-26T22:43:21.679Z,0.94
2022-11-26T22:44:28.889Z,0.94
2022-11-26T22:45:36.198Z,0.92
2022-11-26T22:46:40.309Z,0.91
2022-11-26T22:47:48.526Z,0.92
2022-11-26T22:48:52.150Z,0.96
2022-11-26T22:49:55.990Z,0.97
2022-11-26T22:50:59.934Z,0.97
2022-11-26T22:52:03.944Z,0.94
2022-11-26T22:53:07.847Z,0.94
2022-11-26T22:54:14.766Z,0.94
2022-11-26T22:55:18.720Z,0.95
2022-11-26T22:56:23.697Z,0.96
2022-11-26T22:57:27.657Z,0.97
2022-11-26T22:58:33.511Z,0.95
2022-11-26T22:59:37.812Z,0.97
2022-11-26T23:00:47.838Z,0.97
2022-11-26T23:01:54.749Z,0.95
2022-11-26T23:02:58.843Z,0.97
2022-11-26T23:04:05.797Z,0.69
2022-11-26T23:05:10.268Z,0.94
2022-11-26T23:06:15.573Z,0.96
2022-11-26T23:07:19.710Z,0.94
2022-11-26T23:08:23.677Z,0.93
2022-11-26T23:09:27.591Z,0.94
2022-11-26T23:10:31.690Z,0.95
2022-11-26T23:11:38.096Z,0.93
2022-11-26T23:12:43.204Z,0.94
2022-11-26T23:13:48.412Z,0.90
2022-11-26T23:14:52.250Z,0.88
2022-11-26T23:15:58.828Z,0.91
2022-11-26T23:17:01.830Z,0.89
2022-11-26T23:18:08.573Z,0.93
2022-11-26T23:19:16.449Z,0.88
2022-11-26T23:20:20.481Z,0.84
2022-11-26T23:21:36.730Z,0.87
2022-11-26T23:22:41.043Z,0.88
2022-11-26T23:23:45.713Z,0.86
2022-11-26T23:24:49.566Z,0.86
2022-11-26T23:25:53.520Z,0.85
2022-11-26T23:26:57.511Z,0.85
2022-11-26T23:28:01.441Z,0.90
2022-11-26T23:29:10.919Z,0.88
2022-11-26T23:30:13.665Z,0.91
2022-11-26T23:31:20.671Z,0.87
2022-11-26T23:32:28.260Z,0.88
2022-11-26T23:33:30.970Z,0.87
2022-11-26T23:34:34.898Z,0.87
2022-11-26T23:35:38.884Z,0.88
2022-11-26T23:36:42.939Z,0.88
2022-11-26T23:37:46.798Z,0.90
2022-11-26T23:38:50.907Z,0.90
2022-11-26T23:39:54.835Z,0.93
2022-11-26T23:41:00.797Z,0.93
2022-11-26T23:42:04.885Z,0.91
2022-11-26T23:43:08.926Z,0.91
2022-11-26T23:44:14.354Z,0.91
2022-11-26T23:45:18.428Z,0.91
2022-11-26T23:46:28.003Z,0.89
2022-11-26T23:47:32.007Z,0.90
2022-11-26T23:48:36.001Z,0.91
2022-11-26T23:49:40.228Z,0.93
2022-11-26T23:50:44.386Z,0.92
2022-11-26T23:51:48.692Z,0.94
2022-11-26T23:52:52.586Z,0.94
2022-11-26T23:53:56.668Z,0.94
2022-11-26T23:55:00.564Z,0.89
2022-11-26T23:56:08.263Z,0.93
2022-11-26T23:57:15.107Z,0.93
2022-11-26T23:58:19.446Z,0.94
2022-11-26T23:59:23.359Z,0.94
